sensor_id;sensor_type;location;lat;lon;timestamp;temperature;humidity
18721;DHT22;9489;50.948;3.114;2023-12-14T00:00:43;9.40;99.90
18721;DHT22;9489;50.948;3.114;2023-12-14T00:03:09;9.40;99.90
18721;DHT22;9489;50.948;3.114;2023-12-14T00:05:35;9.30;99.90
18721;DHT22;9489;50.948;3.114;2023-12-14T00:08:01;9.40;99.90
18721;DHT22;9489;50.948;3.114;2023-12-14T00:10:26;9.40;99.90
18721;DHT22;9489;50.948;3.114;2023-12-14T00:12:52;9.30;99.90
18721;DHT22;9489;50.948;3.114;2023-12-14T00:15:20;9.20;99.90
18721;DHT22;9489;50.948;3.114;2023-12-14T00:17:45;9.30;99.90
18721;DHT22;9489;50.948;3.114;2023-12-14T00:20:11;9.30;99.90
18721;DHT22;9489;50.948;3.114;2023-12-14T00:22:37;9.20;99.90
18721;DHT22;9489;50.948;3.114;2023-12-14T00:25:04;9.30;99.90
18721;DHT22;9489;50.948;3.114;2023-12-14T00:27:30;9.30;99.90
18721;DHT22;9489;50.948;3.114;2023-12-14T00:29:55;9.20;99.90
18721;DHT22;9489;50.948;3.114;2023-12-14T00:32:21;9.20;99.90
18721;DHT22;9489;50.948;3.114;2023-12-14T00:34:47;9.20;99.90
18721;DHT22;9489;50.948;3.114;2023-12-14T00:37:12;9.10;99.90
18721;DHT22;9489;50.948;3.114;2023-12-14T00:39:38;9.10;99.90
18721;DHT22;9489;50.948;3.114;2023-12-14T00:42:05;9.00;99.90
18721;DHT22;9489;50.948;3.114;2023-12-14T00:44:30;9.00;99.90
18721;DHT22;9489;50.948;3.114;2023-12-14T00:46:56;9.00;99.90
18721;DHT22;9489;50.948;3.114;2023-12-14T00:49:23;9.00;99.90
18721;DHT22;9489;50.948;3.114;2023-12-14T00:51:49;8.90;99.90
18721;DHT22;9489;50.948;3.114;2023-12-14T00:54:15;8.90;99.90
18721;DHT22;9489;50.948;3.114;2023-12-14T00:56:40;8.90;99.90
18721;DHT22;9489;50.948;3.114;2023-12-14T00:59:06;8.80;99.90
18721;DHT22;9489;50.948;3.114;2023-12-14T01:01:32;8.80;99.90
18721;DHT22;9489;50.948;3.114;2023-12-14T01:03:57;8.80;99.90
18721;DHT22;9489;50.948;3.114;2023-12-14T01:06:24;8.80;99.90
18721;DHT22;9489;50.948;3.114;2023-12-14T01:08:50;8.80;99.90
18721;DHT22;9489;50.948;3.114;2023-12-14T01:11:16;8.60;99.90
18721;DHT22;9489;50.948;3.114;2023-12-14T01:13:41;8.60;99.90
18721;DHT22;9489;50.948;3.114;2023-12-14T01:16:07;8.60;99.90
18721;DHT22;9489;50.948;3.114;2023-12-14T01:18:33;8.60;99.90
18721;DHT22;9489;50.948;3.114;2023-12-14T01:20:59;8.50;99.90
18721;DHT22;9489;50.948;3.114;2023-12-14T01:23:24;8.50;99.90
18721;DHT22;9489;50.948;3.114;2023-12-14T01:25:50;8.40;99.90
18721;DHT22;9489;50.948;3.114;2023-12-14T01:28:15;8.40;99.90
18721;DHT22;9489;50.948;3.114;2023-12-14T01:30:41;8.40;99.90
18721;DHT22;9489;50.948;3.114;2023-12-14T01:33:07;8.40;99.90
18721;DHT22;9489;50.948;3.114;2023-12-14T01:35:32;8.40;99.90
18721;DHT22;9489;50.948;3.114;2023-12-14T01:37:58;8.40;99.90
18721;DHT22;9489;50.948;3.114;2023-12-14T01:40:24;8.40;99.90
18721;DHT22;9489;50.948;3.114;2023-12-14T01:42:49;8.40;99.90
18721;DHT22;9489;50.948;3.114;2023-12-14T01:45:15;8.40;99.90
18721;DHT22;9489;50.948;3.114;2023-12-14T01:47:42;8.40;99.90
18721;DHT22;9489;50.948;3.114;2023-12-14T01:50:09;8.50;99.90
18721;DHT22;9489;50.948;3.114;2023-12-14T01:52:34;8.40;99.90
18721;DHT22;9489;50.948;3.114;2023-12-14T01:55:00;8.50;99.90
18721;DHT22;9489;50.948;3.114;2023-12-14T01:57:28;8.50;99.90
18721;DHT22;9489;50.948;3.114;2023-12-14T01:59:53;8.50;99.90
18721;DHT22;9489;50.948;3.114;2023-12-14T02:02:19;8.40;99.90
18721;DHT22;9489;50.948;3.114;2023-12-14T02:04:45;8.40;99.90
18721;DHT22;9489;50.948;3.114;2023-12-14T02:07:11;8.40;99.90
18721;DHT22;9489;50.948;3.114;2023-12-14T02:09:37;8.40;99.90
18721;DHT22;9489;50.948;3.114;2023-12-14T02:12:02;8.40;99.90
18721;DHT22;9489;50.948;3.114;2023-12-14T02:14:28;8.30;99.90
18721;DHT22;9489;50.948;3.114;2023-12-14T02:16:54;8.30;99.90
18721;DHT22;9489;50.948;3.114;2023-12-14T02:19:19;8.30;99.90
18721;DHT22;9489;50.948;3.114;2023-12-14T02:21:45;8.30;99.90
18721;DHT22;9489;50.948;3.114;2023-12-14T02:24:11;8.30;99.90
18721;DHT22;9489;50.948;3.114;2023-12-14T02:26:36;8.40;99.90
18721;DHT22;9489;50.948;3.114;2023-12-14T02:29:02;8.30;99.90
18721;DHT22;9489;50.948;3.114;2023-12-14T02:31:28;8.30;99.90
18721;DHT22;9489;50.948;3.114;2023-12-14T02:33:53;8.30;99.90
18721;DHT22;9489;50.948;3.114;2023-12-14T02:36:19;8.30;99.90
18721;DHT22;9489;50.948;3.114;2023-12-14T02:38:45;8.30;99.90
18721;DHT22;9489;50.948;3.114;2023-12-14T02:41:10;8.30;99.90
18721;DHT22;9489;50.948;3.114;2023-12-14T02:43:36;8.30;99.90
18721;DHT22;9489;50.948;3.114;2023-12-14T02:46:03;8.20;99.90
18721;DHT22;9489;50.948;3.114;2023-12-14T02:48:29;8.20;99.90
18721;DHT22;9489;50.948;3.114;2023-12-14T02:50:55;8.30;99.90
18721;DHT22;9489;50.948;3.114;2023-12-14T02:53:21;8.20;99.90
18721;DHT22;9489;50.948;3.114;2023-12-14T02:55:46;8.20;99.90
18721;DHT22;9489;50.948;3.114;2023-12-14T02:58:12;8.20;99.90
18721;DHT22;9489;50.948;3.114;2023-12-14T03:00:38;8.20;99.90
18721;DHT22;9489;50.948;3.114;2023-12-14T03:03:03;8.10;99.90
18721;DHT22;9489;50.948;3.114;2023-12-14T03:05:29;8.00;99.90
18721;DHT22;9489;50.948;3.114;2023-12-14T03:07:55;8.00;99.90
18721;DHT22;9489;50.948;3.114;2023-12-14T03:10:20;8.00;99.90
18721;DHT22;9489;50.948;3.114;2023-12-14T03:12:46;8.00;99.90
18721;DHT22;9489;50.948;3.114;2023-12-14T03:15:11;8.00;99.90
18721;DHT22;9489;50.948;3.114;2023-12-14T03:17:37;7.90;99.90
18721;DHT22;9489;50.948;3.114;2023-12-14T03:20:03;8.00;99.90
18721;DHT22;9489;50.948;3.114;2023-12-14T03:22:30;8.00;99.90
18721;DHT22;9489;50.948;3.114;2023-12-14T03:24:56;8.00;99.90
18721;DHT22;9489;50.948;3.114;2023-12-14T03:27:22;8.00;99.90
18721;DHT22;9489;50.948;3.114;2023-12-14T03:29:48;8.10;99.90
18721;DHT22;9489;50.948;3.114;2023-12-14T03:32:14;8.10;99.90
18721;DHT22;9489;50.948;3.114;2023-12-14T03:34:40;8.10;99.90
18721;DHT22;9489;50.948;3.114;2023-12-14T03:37:06;8.20;99.90
18721;DHT22;9489;50.948;3.114;2023-12-14T03:39:32;8.20;99.90
18721;DHT22;9489;50.948;3.114;2023-12-14T03:41:57;8.20;99.90
18721;DHT22;9489;50.948;3.114;2023-12-14T03:44:23;8.20;99.90
18721;DHT22;9489;50.948;3.114;2023-12-14T03:46:50;8.20;99.90
18721;DHT22;9489;50.948;3.114;2023-12-14T03:49:15;8.10;99.90
18721;DHT22;9489;50.948;3.114;2023-12-14T03:51:41;8.10;99.90
18721;DHT22;9489;50.948;3.114;2023-12-14T03:54:07;8.10;99.90
18721;DHT22;9489;50.948;3.114;2023-12-14T03:56:32;8.10;99.90
18721;DHT22;9489;50.948;3.114;2023-12-14T03:58:58;8.10;99.90
18721;DHT22;9489;50.948;3.114;2023-12-14T04:01:24;8.20;99.90
18721;DHT22;9489;50.948;3.114;2023-12-14T04:03:50;8.20;99.90
18721;DHT22;9489;50.948;3.114;2023-12-14T04:06:16;8.20;99.90
18721;DHT22;9489;50.948;3.114;2023-12-14T04:08:42;8.20;99.90
18721;DHT22;9489;50.948;3.114;2023-12-14T04:11:08;8.20;99.90
18721;DHT22;9489;50.948;3.114;2023-12-14T04:13:34;8.20;99.90
18721;DHT22;9489;50.948;3.114;2023-12-14T04:15:59;8.20;99.90
18721;DHT22;9489;50.948;3.114;2023-12-14T04:18:25;8.20;99.90
18721;DHT22;9489;50.948;3.114;2023-12-14T04:20:51;8.10;99.90
18721;DHT22;9489;50.948;3.114;2023-12-14T04:23:16;8.20;99.90
18721;DHT22;9489;50.948;3.114;2023-12-14T04:25:43;8.10;99.90
18721;DHT22;9489;50.948;3.114;2023-12-14T04:28:09;8.10;99.90
18721;DHT22;9489;50.948;3.114;2023-12-14T04:30:34;8.10;99.90
18721;DHT22;9489;50.948;3.114;2023-12-14T04:33:00;8.00;99.90
18721;DHT22;9489;50.948;3.114;2023-12-14T04:35:26;8.00;99.90
18721;DHT22;9489;50.948;3.114;2023-12-14T04:37:51;8.00;99.90
18721;DHT22;9489;50.948;3.114;2023-12-14T04:40:17;8.10;99.90
18721;DHT22;9489;50.948;3.114;2023-12-14T04:42:43;8.00;99.90
18721;DHT22;9489;50.948;3.114;2023-12-14T04:45:09;8.10;99.90
18721;DHT22;9489;50.948;3.114;2023-12-14T04:47:35;8.20;99.90
18721;DHT22;9489;50.948;3.114;2023-12-14T04:50:02;8.10;99.90
18721;DHT22;9489;50.948;3.114;2023-12-14T04:52:27;8.10;99.90
18721;DHT22;9489;50.948;3.114;2023-12-14T04:54:53;8.10;99.90
18721;DHT22;9489;50.948;3.114;2023-12-14T04:57:19;8.10;99.90
18721;DHT22;9489;50.948;3.114;2023-12-14T04:59:44;8.10;99.90
18721;DHT22;9489;50.948;3.114;2023-12-14T05:02:10;8.10;99.90
18721;DHT22;9489;50.948;3.114;2023-12-14T05:04:36;8.10;99.90
18721;DHT22;9489;50.948;3.114;2023-12-14T05:07:01;8.00;99.90
18721;DHT22;9489;50.948;3.114;2023-12-14T05:09:27;8.10;99.90
18721;DHT22;9489;50.948;3.114;2023-12-14T05:11:53;8.10;99.90
18721;DHT22;9489;50.948;3.114;2023-12-14T05:14:19;8.00;99.90
18721;DHT22;9489;50.948;3.114;2023-12-14T05:16:44;8.00;99.90
18721;DHT22;9489;50.948;3.114;2023-12-14T05:19:10;8.00;99.90
18721;DHT22;9489;50.948;3.114;2023-12-14T05:21:36;8.00;99.90
18721;DHT22;9489;50.948;3.114;2023-12-14T05:24:01;8.00;99.90
18721;DHT22;9489;50.948;3.114;2023-12-14T05:26:28;8.10;99.90
18721;DHT22;9489;50.948;3.114;2023-12-14T05:28:54;8.10;99.90
18721;DHT22;9489;50.948;3.114;2023-12-14T05:31:19;8.00;99.90
18721;DHT22;9489;50.948;3.114;2023-12-14T05:33:45;8.00;99.90
18721;DHT22;9489;50.948;3.114;2023-12-14T05:36:10;8.00;99.90
18721;DHT22;9489;50.948;3.114;2023-12-14T05:38:40;8.00;99.90
18721;DHT22;9489;50.948;3.114;2023-12-14T05:41:06;8.10;99.90
18721;DHT22;9489;50.948;3.114;2023-12-14T05:43:32;8.10;99.90
18721;DHT22;9489;50.948;3.114;2023-12-14T05:45:57;8.00;99.90
18721;DHT22;9489;50.948;3.114;2023-12-14T05:48:23;8.00;99.90
18721;DHT22;9489;50.948;3.114;2023-12-14T05:50:51;8.10;99.90
18721;DHT22;9489;50.948;3.114;2023-12-14T05:53:17;8.00;99.90
18721;DHT22;9489;50.948;3.114;2023-12-14T05:55:42;8.00;99.90
18721;DHT22;9489;50.948;3.114;2023-12-14T05:58:08;8.00;99.90
18721;DHT22;9489;50.948;3.114;2023-12-14T06:00:35;8.10;99.90
18721;DHT22;9489;50.948;3.114;2023-12-14T06:03:01;8.00;99.90
18721;DHT22;9489;50.948;3.114;2023-12-14T06:05:27;8.00;99.90
18721;DHT22;9489;50.948;3.114;2023-12-14T06:07:52;7.90;99.90
18721;DHT22;9489;50.948;3.114;2023-12-14T06:10:18;7.80;99.90
18721;DHT22;9489;50.948;3.114;2023-12-14T06:12:44;7.80;99.90
18721;DHT22;9489;50.948;3.114;2023-12-14T06:15:10;7.70;99.90
18721;DHT22;9489;50.948;3.114;2023-12-14T06:17:36;7.70;99.90
18721;DHT22;9489;50.948;3.114;2023-12-14T06:20:05;7.70;99.90
18721;DHT22;9489;50.948;3.114;2023-12-14T06:22:35;7.70;99.90
18721;DHT22;9489;50.948;3.114;2023-12-14T06:25:01;7.70;99.90
18721;DHT22;9489;50.948;3.114;2023-12-14T06:27:27;7.80;99.90
18721;DHT22;9489;50.948;3.114;2023-12-14T06:29:52;7.70;99.90
18721;DHT22;9489;50.948;3.114;2023-12-14T06:32:18;7.60;99.90
18721;DHT22;9489;50.948;3.114;2023-12-14T06:34:44;7.50;99.90
18721;DHT22;9489;50.948;3.114;2023-12-14T06:37:09;7.60;99.90
18721;DHT22;9489;50.948;3.114;2023-12-14T06:39:36;7.40;99.90
18721;DHT22;9489;50.948;3.114;2023-12-14T06:42:01;7.40;99.90
18721;DHT22;9489;50.948;3.114;2023-12-14T06:44:27;7.40;99.90
18721;DHT22;9489;50.948;3.114;2023-12-14T06:46:54;7.30;99.90
18721;DHT22;9489;50.948;3.114;2023-12-14T06:49:20;7.20;99.90
18721;DHT22;9489;50.948;3.114;2023-12-14T06:51:46;7.20;99.90
18721;DHT22;9489;50.948;3.114;2023-12-14T06:54:12;7.20;99.90
18721;DHT22;9489;50.948;3.114;2023-12-14T06:56:37;7.20;99.90
18721;DHT22;9489;50.948;3.114;2023-12-14T06:59:03;7.10;99.90
18721;DHT22;9489;50.948;3.114;2023-12-14T07:01:29;7.10;99.90
18721;DHT22;9489;50.948;3.114;2023-12-14T07:03:54;7.10;99.90
18721;DHT22;9489;50.948;3.114;2023-12-14T07:06:20;7.20;99.90
18721;DHT22;9489;50.948;3.114;2023-12-14T07:08:46;7.20;99.90
18721;DHT22;9489;50.948;3.114;2023-12-14T07:11:13;7.30;99.90
18721;DHT22;9489;50.948;3.114;2023-12-14T07:13:39;7.30;99.90
18721;DHT22;9489;50.948;3.114;2023-12-14T07:16:06;7.30;99.90
18721;DHT22;9489;50.948;3.114;2023-12-14T07:18:36;7.40;99.90
18721;DHT22;9489;50.948;3.114;2023-12-14T07:21:02;7.40;99.90
18721;DHT22;9489;50.948;3.114;2023-12-14T07:23:28;7.40;99.90
18721;DHT22;9489;50.948;3.114;2023-12-14T07:25:54;7.40;99.90
18721;DHT22;9489;50.948;3.114;2023-12-14T07:28:20;7.40;99.90
18721;DHT22;9489;50.948;3.114;2023-12-14T07:30:46;7.50;99.90
18721;DHT22;9489;50.948;3.114;2023-12-14T07:33:12;7.50;99.90
18721;DHT22;9489;50.948;3.114;2023-12-14T07:35:38;7.50;99.90
18721;DHT22;9489;50.948;3.114;2023-12-14T07:38:04;7.60;99.90
18721;DHT22;9489;50.948;3.114;2023-12-14T07:40:29;7.60;99.90
18721;DHT22;9489;50.948;3.114;2023-12-14T07:42:55;7.60;99.90
18721;DHT22;9489;50.948;3.114;2023-12-14T07:45:21;7.70;99.90
18721;DHT22;9489;50.948;3.114;2023-12-14T07:47:46;7.70;99.90
18721;DHT22;9489;50.948;3.114;2023-12-14T07:50:12;7.60;99.90
18721;DHT22;9489;50.948;3.114;2023-12-14T07:52:39;7.60;99.90
18721;DHT22;9489;50.948;3.114;2023-12-14T07:55:05;7.70;99.90
18721;DHT22;9489;50.948;3.114;2023-12-14T07:57:31;7.70;99.90
18721;DHT22;9489;50.948;3.114;2023-12-14T07:59:57;7.70;99.90
18721;DHT22;9489;50.948;3.114;2023-12-14T08:02:23;7.70;99.90
18721;DHT22;9489;50.948;3.114;2023-12-14T08:04:48;7.80;99.90
18721;DHT22;9489;50.948;3.114;2023-12-14T08:07:14;7.80;99.90
18721;DHT22;9489;50.948;3.114;2023-12-14T08:09:40;7.80;99.90
18721;DHT22;9489;50.948;3.114;2023-12-14T08:12:06;7.80;99.90
18721;DHT22;9489;50.948;3.114;2023-12-14T08:14:35;7.80;99.90
18721;DHT22;9489;50.948;3.114;2023-12-14T08:17:03;7.80;99.90
18721;DHT22;9489;50.948;3.114;2023-12-14T08:19:28;7.90;99.90
18721;DHT22;9489;50.948;3.114;2023-12-14T08:21:54;7.80;99.90
18721;DHT22;9489;50.948;3.114;2023-12-14T08:24:20;7.80;99.90
18721;DHT22;9489;50.948;3.114;2023-12-14T08:26:46;7.80;99.90
18721;DHT22;9489;50.948;3.114;2023-12-14T08:29:11;7.80;99.90
18721;DHT22;9489;50.948;3.114;2023-12-14T08:31:37;7.80;99.90
18721;DHT22;9489;50.948;3.114;2023-12-14T08:34:02;7.80;99.90
18721;DHT22;9489;50.948;3.114;2023-12-14T08:36:29;7.80;99.90
18721;DHT22;9489;50.948;3.114;2023-12-14T08:38:55;7.80;99.90
18721;DHT22;9489;50.948;3.114;2023-12-14T08:41:20;7.80;99.90
18721;DHT22;9489;50.948;3.114;2023-12-14T08:43:46;7.90;99.90
18721;DHT22;9489;50.948;3.114;2023-12-14T08:46:12;7.90;99.90
18721;DHT22;9489;50.948;3.114;2023-12-14T08:48:38;7.90;99.90
18721;DHT22;9489;50.948;3.114;2023-12-14T08:51:04;7.90;99.90
18721;DHT22;9489;50.948;3.114;2023-12-14T08:53:29;8.00;99.90
18721;DHT22;9489;50.948;3.114;2023-12-14T08:55:55;8.00;99.90
18721;DHT22;9489;50.948;3.114;2023-12-14T08:58:21;8.00;99.90
18721;DHT22;9489;50.948;3.114;2023-12-14T09:00:47;8.10;99.90
18721;DHT22;9489;50.948;3.114;2023-12-14T09:03:12;8.00;99.90
18721;DHT22;9489;50.948;3.114;2023-12-14T09:05:38;8.10;99.90
18721;DHT22;9489;50.948;3.114;2023-12-14T09:08:07;8.10;99.90
18721;DHT22;9489;50.948;3.114;2023-12-14T09:10:33;8.20;99.90
18721;DHT22;9489;50.948;3.114;2023-12-14T09:12:59;8.20;99.90
18721;DHT22;9489;50.948;3.114;2023-12-14T09:15:25;8.20;99.90
18721;DHT22;9489;50.948;3.114;2023-12-14T09:17:51;8.20;99.90
18721;DHT22;9489;50.948;3.114;2023-12-14T09:20:17;8.30;99.90
18721;DHT22;9489;50.948;3.114;2023-12-14T09:22:42;8.20;99.90
18721;DHT22;9489;50.948;3.114;2023-12-14T09:25:08;8.30;99.90
18721;DHT22;9489;50.948;3.114;2023-12-14T09:27:35;8.20;99.90
18721;DHT22;9489;50.948;3.114;2023-12-14T09:30:00;8.20;99.90
18721;DHT22;9489;50.948;3.114;2023-12-14T09:32:26;8.20;99.90
18721;DHT22;9489;50.948;3.114;2023-12-14T09:34:52;8.20;99.90
18721;DHT22;9489;50.948;3.114;2023-12-14T09:37:22;8.20;99.90
18721;DHT22;9489;50.948;3.114;2023-12-14T09:39:47;8.20;99.90
18721;DHT22;9489;50.948;3.114;2023-12-14T09:42:16;8.30;99.90
18721;DHT22;9489;50.948;3.114;2023-12-14T09:44:43;8.30;99.90
18721;DHT22;9489;50.948;3.114;2023-12-14T09:47:09;8.30;99.90
18721;DHT22;9489;50.948;3.114;2023-12-14T09:49:36;8.40;99.90
18721;DHT22;9489;50.948;3.114;2023-12-14T09:52:03;8.50;99.90
18721;DHT22;9489;50.948;3.114;2023-12-14T09:54:28;8.50;99.90
18721;DHT22;9489;50.948;3.114;2023-12-14T09:56:54;8.60;99.90
18721;DHT22;9489;50.948;3.114;2023-12-14T09:59:21;8.60;99.90
18721;DHT22;9489;50.948;3.114;2023-12-14T10:01:47;8.70;99.90
18721;DHT22;9489;50.948;3.114;2023-12-14T10:04:14;8.70;99.90
18721;DHT22;9489;50.948;3.114;2023-12-14T10:06:41;8.60;99.90
18721;DHT22;9489;50.948;3.114;2023-12-14T10:09:08;8.60;99.90
18721;DHT22;9489;50.948;3.114;2023-12-14T10:11:41;8.60;99.90
18721;DHT22;9489;50.948;3.114;2023-12-14T10:14:25;8.60;99.90
18721;DHT22;9489;50.948;3.114;2023-12-14T10:16:51;8.60;99.90
18721;DHT22;9489;50.948;3.114;2023-12-14T10:19:18;8.60;99.90
18721;DHT22;9489;50.948;3.114;2023-12-14T10:21:46;8.60;99.90
18721;DHT22;9489;50.948;3.114;2023-12-14T10:24:13;8.60;99.90
18721;DHT22;9489;50.948;3.114;2023-12-14T10:26:39;8.70;99.90
18721;DHT22;9489;50.948;3.114;2023-12-14T10:29:04;8.60;99.90
18721;DHT22;9489;50.948;3.114;2023-12-14T10:31:31;8.60;99.90
18721;DHT22;9489;50.948;3.114;2023-12-14T10:33:56;8.60;99.90
18721;DHT22;9489;50.948;3.114;2023-12-14T10:36:25;8.70;99.90
18721;DHT22;9489;50.948;3.114;2023-12-14T10:38:57;8.70;99.90
18721;DHT22;9489;50.948;3.114;2023-12-14T10:41:24;8.60;99.90
18721;DHT22;9489;50.948;3.114;2023-12-14T10:43:55;8.50;99.90
18721;DHT22;9489;50.948;3.114;2023-12-14T10:46:20;8.50;99.90
18721;DHT22;9489;50.948;3.114;2023-12-14T10:48:55;8.40;99.90
18721;DHT22;9489;50.948;3.114;2023-12-14T10:51:23;8.40;99.90
18721;DHT22;9489;50.948;3.114;2023-12-14T10:53:49;8.40;99.90
18721;DHT22;9489;50.948;3.114;2023-12-14T10:56:17;8.50;99.90
18721;DHT22;9489;50.948;3.114;2023-12-14T10:58:47;8.50;99.90
18721;DHT22;9489;50.948;3.114;2023-12-14T11:01:17;8.60;99.90
18721;DHT22;9489;50.948;3.114;2023-12-14T11:03:44;8.60;99.90
18721;DHT22;9489;50.948;3.114;2023-12-14T11:06:30;8.70;99.90
18721;DHT22;9489;50.948;3.114;2023-12-14T11:09:06;8.80;99.90
18721;DHT22;9489;50.948;3.114;2023-12-14T11:14:19;8.70;99.90
18721;DHT22;9489;50.948;3.114;2023-12-14T11:16:45;8.60;99.90
18721;DHT22;9489;50.948;3.114;2023-12-14T11:24:22;8.70;99.90
18721;DHT22;9489;50.948;3.114;2023-12-14T11:26:51;8.70;99.90
18721;DHT22;9489;50.948;3.114;2023-12-14T11:29:18;8.70;99.90
18721;DHT22;9489;50.948;3.114;2023-12-14T11:31:45;8.70;99.90
18721;DHT22;9489;50.948;3.114;2023-12-14T11:34:11;8.60;99.90
18721;DHT22;9489;50.948;3.114;2023-12-14T11:36:37;8.60;99.90
18721;DHT22;9489;50.948;3.114;2023-12-14T11:39:07;8.60;99.90
18721;DHT22;9489;50.948;3.114;2023-12-14T11:41:33;8.70;99.90
18721;DHT22;9489;50.948;3.114;2023-12-14T11:43:59;8.70;99.90
18721;DHT22;9489;50.948;3.114;2023-12-14T11:46:25;8.70;99.90
18721;DHT22;9489;50.948;3.114;2023-12-14T11:48:50;8.70;99.90
18721;DHT22;9489;50.948;3.114;2023-12-14T11:51:17;8.70;99.90
18721;DHT22;9489;50.948;3.114;2023-12-14T11:53:50;8.80;99.90
18721;DHT22;9489;50.948;3.114;2023-12-14T11:56:19;8.80;99.90
18721;DHT22;9489;50.948;3.114;2023-12-14T11:58:45;8.80;99.90
18721;DHT22;9489;50.948;3.114;2023-12-14T12:01:16;8.90;99.90
18721;DHT22;9489;50.948;3.114;2023-12-14T12:03:42;8.90;99.90
18721;DHT22;9489;50.948;3.114;2023-12-14T12:06:24;9.00;99.90
18721;DHT22;9489;50.948;3.114;2023-12-14T12:08:50;9.10;99.90
18721;DHT22;9489;50.948;3.114;2023-12-14T12:11:20;9.20;99.90
18721;DHT22;9489;50.948;3.114;2023-12-14T12:13:52;9.30;99.90
18721;DHT22;9489;50.948;3.114;2023-12-14T12:16:18;9.40;99.90
18721;DHT22;9489;50.948;3.114;2023-12-14T12:18:43;9.40;99.90
18721;DHT22;9489;50.948;3.114;2023-12-14T12:21:11;9.40;99.90
18721;DHT22;9489;50.948;3.114;2023-12-14T12:23:37;9.30;99.90
18721;DHT22;9489;50.948;3.114;2023-12-14T12:26:03;9.30;99.90
18721;DHT22;9489;50.948;3.114;2023-12-14T12:28:30;9.30;99.90
18721;DHT22;9489;50.948;3.114;2023-12-14T12:30:55;9.20;99.90
18721;DHT22;9489;50.948;3.114;2023-12-14T12:33:21;9.20;99.90
18721;DHT22;9489;50.948;3.114;2023-12-14T12:35:47;9.20;99.90
18721;DHT22;9489;50.948;3.114;2023-12-14T12:38:12;9.10;99.90
18721;DHT22;9489;50.948;3.114;2023-12-14T12:40:38;9.10;99.90
18721;DHT22;9489;50.948;3.114;2023-12-14T12:43:05;9.00;99.90
18721;DHT22;9489;50.948;3.114;2023-12-14T12:45:30;9.00;99.90
18721;DHT22;9489;50.948;3.114;2023-12-14T12:47:58;8.90;99.90
18721;DHT22;9489;50.948;3.114;2023-12-14T12:50:23;9.00;99.90
18721;DHT22;9489;50.948;3.114;2023-12-14T12:52:49;9.00;99.90
18721;DHT22;9489;50.948;3.114;2023-12-14T12:55:16;8.90;99.90
18721;DHT22;9489;50.948;3.114;2023-12-14T12:57:42;8.90;99.90
18721;DHT22;9489;50.948;3.114;2023-12-14T13:00:09;8.90;99.90
18721;DHT22;9489;50.948;3.114;2023-12-14T13:02:44;8.80;99.90
18721;DHT22;9489;50.948;3.114;2023-12-14T13:05:13;8.80;99.90
18721;DHT22;9489;50.948;3.114;2023-12-14T13:07:39;8.70;99.90
18721;DHT22;9489;50.948;3.114;2023-12-14T13:10:05;8.70;99.90
18721;DHT22;9489;50.948;3.114;2023-12-14T13:12:35;8.70;99.90
18721;DHT22;9489;50.948;3.114;2023-12-14T13:15:01;8.60;99.90
18721;DHT22;9489;50.948;3.114;2023-12-14T13:17:26;8.70;99.90
18721;DHT22;9489;50.948;3.114;2023-12-14T13:19:52;8.60;99.90
18721;DHT22;9489;50.948;3.114;2023-12-14T13:22:19;8.60;99.90
18721;DHT22;9489;50.948;3.114;2023-12-14T13:24:45;8.60;99.90
18721;DHT22;9489;50.948;3.114;2023-12-14T13:27:11;8.60;99.90
18721;DHT22;9489;50.948;3.114;2023-12-14T13:29:37;8.60;99.90
18721;DHT22;9489;50.948;3.114;2023-12-14T13:32:02;8.60;99.90
18721;DHT22;9489;50.948;3.114;2023-12-14T13:34:28;8.60;99.90
18721;DHT22;9489;50.948;3.114;2023-12-14T13:36:54;8.60;99.90
18721;DHT22;9489;50.948;3.114;2023-12-14T13:39:20;8.50;99.90
18721;DHT22;9489;50.948;3.114;2023-12-14T13:41:47;8.50;99.90
18721;DHT22;9489;50.948;3.114;2023-12-14T13:44:13;8.50;99.90
18721;DHT22;9489;50.948;3.114;2023-12-14T13:46:39;8.60;99.90
18721;DHT22;9489;50.948;3.114;2023-12-14T13:49:05;8.60;99.90
18721;DHT22;9489;50.948;3.114;2023-12-14T13:51:30;8.50;99.90
18721;DHT22;9489;50.948;3.114;2023-12-14T13:53:56;8.60;99.90
18721;DHT22;9489;50.948;3.114;2023-12-14T13:56:23;8.50;99.90
18721;DHT22;9489;50.948;3.114;2023-12-14T13:58:49;8.50;99.90
18721;DHT22;9489;50.948;3.114;2023-12-14T14:01:14;8.50;99.90
18721;DHT22;9489;50.948;3.114;2023-12-14T14:03:43;8.50;99.90
18721;DHT22;9489;50.948;3.114;2023-12-14T14:06:09;8.60;99.90
18721;DHT22;9489;50.948;3.114;2023-12-14T14:08:35;8.50;99.90
18721;DHT22;9489;50.948;3.114;2023-12-14T14:11:01;8.50;99.90
18721;DHT22;9489;50.948;3.114;2023-12-14T14:13:27;8.60;99.90
18721;DHT22;9489;50.948;3.114;2023-12-14T14:15:53;8.50;99.90
18721;DHT22;9489;50.948;3.114;2023-12-14T14:18:19;8.50;99.90
18721;DHT22;9489;50.948;3.114;2023-12-14T14:20:45;8.50;99.90
18721;DHT22;9489;50.948;3.114;2023-12-14T14:23:11;8.40;99.90
18721;DHT22;9489;50.948;3.114;2023-12-14T14:25:37;8.30;99.90
18721;DHT22;9489;50.948;3.114;2023-12-14T14:28:03;8.40;99.90
18721;DHT22;9489;50.948;3.114;2023-12-14T14:30:29;8.30;99.90
18721;DHT22;9489;50.948;3.114;2023-12-14T14:32:55;8.40;99.90
18721;DHT22;9489;50.948;3.114;2023-12-14T14:35:21;8.40;99.90
18721;DHT22;9489;50.948;3.114;2023-12-14T14:37:46;8.30;99.90
18721;DHT22;9489;50.948;3.114;2023-12-14T14:40:13;8.30;99.90
18721;DHT22;9489;50.948;3.114;2023-12-14T14:42:42;8.30;99.90
18721;DHT22;9489;50.948;3.114;2023-12-14T14:45:08;8.30;99.90
18721;DHT22;9489;50.948;3.114;2023-12-14T14:47:34;8.30;99.90
18721;DHT22;9489;50.948;3.114;2023-12-14T14:50:01;8.30;99.90
18721;DHT22;9489;50.948;3.114;2023-12-14T14:52:32;8.30;99.90
18721;DHT22;9489;50.948;3.114;2023-12-14T14:54:58;8.30;99.90
18721;DHT22;9489;50.948;3.114;2023-12-14T14:57:23;8.30;99.90
18721;DHT22;9489;50.948;3.114;2023-12-14T14:59:49;8.30;99.90
18721;DHT22;9489;50.948;3.114;2023-12-14T15:02:15;8.20;99.90
18721;DHT22;9489;50.948;3.114;2023-12-14T15:04:41;8.20;99.90
18721;DHT22;9489;50.948;3.114;2023-12-14T15:07:07;8.20;99.90
18721;DHT22;9489;50.948;3.114;2023-12-14T15:09:32;8.20;99.90
18721;DHT22;9489;50.948;3.114;2023-12-14T15:11:58;8.20;99.90
18721;DHT22;9489;50.948;3.114;2023-12-14T15:14:24;8.20;99.90
18721;DHT22;9489;50.948;3.114;2023-12-14T15:16:50;8.20;99.90
18721;DHT22;9489;50.948;3.114;2023-12-14T15:19:15;8.20;99.90
18721;DHT22;9489;50.948;3.114;2023-12-14T15:21:41;8.20;99.90
18721;DHT22;9489;50.948;3.114;2023-12-14T15:24:07;8.20;99.90
18721;DHT22;9489;50.948;3.114;2023-12-14T15:26:33;8.20;99.90
18721;DHT22;9489;50.948;3.114;2023-12-14T15:28:59;8.20;99.90
18721;DHT22;9489;50.948;3.114;2023-12-14T15:31:25;8.30;99.90
18721;DHT22;9489;50.948;3.114;2023-12-14T15:33:51;8.20;99.90
18721;DHT22;9489;50.948;3.114;2023-12-14T15:36:16;8.20;99.90
18721;DHT22;9489;50.948;3.114;2023-12-14T15:38:42;8.10;99.90
18721;DHT22;9489;50.948;3.114;2023-12-14T15:41:14;8.10;99.90
18721;DHT22;9489;50.948;3.114;2023-12-14T15:43:43;8.10;99.90
18721;DHT22;9489;50.948;3.114;2023-12-14T15:46:09;8.10;99.90
18721;DHT22;9489;50.948;3.114;2023-12-14T15:48:35;8.00;99.90
18721;DHT22;9489;50.948;3.114;2023-12-14T15:51:05;8.00;99.90
18721;DHT22;9489;50.948;3.114;2023-12-14T15:53:32;8.00;99.90
18721;DHT22;9489;50.948;3.114;2023-12-14T15:55:58;8.00;99.90
18721;DHT22;9489;50.948;3.114;2023-12-14T15:58:24;8.00;99.90
18721;DHT22;9489;50.948;3.114;2023-12-14T16:00:50;8.00;99.90
18721;DHT22;9489;50.948;3.114;2023-12-14T16:03:15;7.90;99.90